Time;durP1;ratioP1;P1;durP2;ratioP2;P2;SDS_P1;SDS_P2;PMS_P1;PMS_P2;Temp;Humidity;BMP_temperature;BMP_pressure;BME280_temperature;BME280_humidity;BME280_pressure;Samples;Min_cycle;Max_cycle;Signal;HPM_P1;HPM_P2
2022/09/28 00:01:55;;;;;;;7.30;3.75;;;;;;;7.42;100.00;99558.81;4868770;29;20056;-82
2022/09/28 00:04:24;;;;;;;6.07;3.40;;;;;;;7.40;100.00;99551.88;4902518;29;20695;-82
2022/09/28 00:06:52;;;;;;;6.22;4.05;;;;;;;7.39;100.00;99550.09;4897681;29;20052;-83
2022/09/28 00:09:21;;;;;;;3.38;3.08;;;;;;;7.38;100.00;99551.88;4876929;29;20060;-82
2022/09/28 00:11:49;;;;;;;3.75;3.35;;;;;;;7.35;100.00;99551.91;4898552;29;20052;-81
2022/09/28 00:14:19;;;;;;;6.03;3.55;;;;;;;7.33;100.00;99556.25;4870743;29;20277;-82
2022/09/28 00:16:50;;;;;;;6.15;3.75;;;;;;;7.30;100.00;99552.78;4915613;29;20056;-81
2022/09/28 00:19:20;;;;;;;4.47;4.03;;;;;;;7.28;100.00;99551.91;4859060;29;20044;-81
2022/09/28 00:21:48;;;;;;;4.28;3.70;;;;;;;7.23;100.00;99546.69;4884363;29;20062;-81
2022/09/28 00:24:19;;;;;;;8.85;4.57;;;;;;;7.21;100.00;99551.06;4897155;29;20244;-81
2022/09/28 00:26:56;;;;;;;3.65;3.35;;;;;;;7.18;100.00;99554.59;4909607;29;20063;-81
2022/09/28 00:29:26;;;;;;;;;;;;;;;7.14;100.00;99546.72;4874679;29;20412;-81
2022/09/28 00:32:01;;;;;;;4.82;4.18;;;;;;;7.08;100.00;99555.47;4917443;29;19930;-82
2022/09/28 00:34:40;;;;;;;6.07;3.80;;;;;;;7.05;100.00;99546.75;4872357;29;20401;-81
2022/09/28 00:37:08;;;;;;;4.70;3.67;;;;;;;6.99;100.00;99551.16;4888479;29;20431;-83
2022/09/28 00:39:40;;;;;;;4.15;3.78;;;;;;;6.96;100.00;99550.28;4884878;29;20402;-80
2022/09/28 00:42:14;;;;;;;4.30;3.90;;;;;;;6.91;100.00;99550.28;4892032;29;20070;-83
2022/09/28 00:44:47;;;;;;;4.87;4.37;;;;;;;6.87;100.00;99550.31;4898361;29;20498;-80
2022/09/28 00:47:42;;;;;;;4.25;3.85;;;;;;;6.83;100.00;99539.84;4889814;29;20932;-82
2022/09/28 00:50:16;;;;;;;5.18;4.10;;;;;;;6.81;100.00;99551.19;4891769;29;20257;-82
2022/09/28 00:53:05;;;;;;;5.78;4.53;;;;;;;6.78;100.00;99549.44;4899252;29;20056;-82
2022/09/28 00:55:42;;;;;;;6.95;4.57;;;;;;;6.76;100.00;99553.81;4892449;29;20044;-81
2022/09/28 00:58:18;;;;;;;5.93;4.78;;;;;;;6.74;100.00;99549.47;4877222;29;20032;-81
2022/09/28 01:00:48;;;;;;;5.75;4.45;;;;;;;6.73;100.00;99539.84;4891230;29;20052;-81
2022/09/28 01:03:16;;;;;;;11.80;5.57;;;;;;;6.70;100.00;99542.50;4895745;29;20043;-82
2022/09/28 01:05:48;;;;;;;7.32;4.95;;;;;;;6.70;100.00;99542.50;4859388;29;20059;-81
2022/09/28 01:08:20;;;;;;;6.15;5.07;;;;;;;6.69;100.00;99545.97;4893805;29;20075;-81
2022/09/28 01:10:50;;;;;;;7.35;5.38;;;;;;;6.67;100.00;99539.88;4880334;29;20052;-81
2022/09/28 01:13:24;;;;;;;6.38;4.95;;;;;;;6.67;100.00;99540.72;4879444;29;20044;-81
2022/09/28 01:16:22;;;;;;;5.10;4.63;;;;;;;6.65;100.00;99526.78;4878412;29;20052;-81
2022/09/28 01:19:11;;;;;;;10.85;6.05;;;;;;;6.63;100.00;99528.53;4897234;29;20509;-82
2022/09/28 01:21:53;;;;;;;7.05;5.57;;;;;;;6.62;100.00;99527.66;4894036;29;20498;-81
2022/09/28 01:24:46;;;;;;;8.55;5.35;;;;;;;6.61;100.00;99525.06;4881542;29;20048;-81
2022/09/28 01:27:41;;;;;;;7.28;5.07;;;;;;;6.60;100.00;99525.94;4902491;29;20044;-81
2022/09/28 01:30:14;;;;;;;7.65;5.50;;;;;;;6.59;100.00;99525.03;4903029;29;20052;-82
2022/09/28 01:32:55;;;;;;;6.20;4.95;;;;;;;6.59;100.00;99529.41;4875018;29;20060;-82
2022/09/28 01:35:27;;;;;;;;;;;;;;;6.54;100.00;99523.31;4897815;29;20160;-80
2022/09/28 01:38:21;;;;;;;7.90;5.35;;;;;;;6.49;100.00;99520.72;4870171;29;19935;-82
2022/09/28 01:40:52;;;;;;;6.00;5.15;;;;;;;6.46;100.00;99531.16;4890500;29;20056;-81
2022/09/28 01:43:27;;;;;;;8.98;6.18;;;;;;;6.44;100.00;99519.84;4890267;29;20148;-80
2022/09/28 01:46:06;;;;;;;7.88;6.32;;;;;;;6.43;100.00;99528.59;4914515;29;20051;-81
2022/09/28 01:48:41;;;;;;;9.10;5.90;;;;;;;6.42;100.00;99525.06;4892081;29;20052;-81
2022/09/28 01:51:16;;;;;;;7.78;5.97;;;;;;;6.41;100.00;99527.72;4904443;29;20048;-81
2022/09/28 01:53:52;;;;;;;10.50;5.90;;;;;;;6.39;100.00;99516.34;4851386;29;20056;-81
2022/09/28 01:56:28;;;;;;;7.75;6.28;;;;;;;6.38;100.00;99517.25;4874292;29;20338;-82
2022/09/28 01:59:25;;;;;;;8.32;6.00;;;;;;;6.38;100.00;99522.47;4876659;29;20039;-83
2022/09/28 02:02:20;;;;;;;12.27;6.75;;;;;;;6.36;100.00;99522.47;4898477;29;20121;-82
2022/09/28 02:04:58;;;;;;;7.32;6.00;;;;;;;6.34;100.00;99516.38;4882161;29;20048;-82
2022/09/28 02:07:45;;;;;;;10.15;6.28;;;;;;;6.32;100.00;99507.66;4896581;29;20367;-81
2022/09/28 02:10:28;;;;;;;6.85;6.15;;;;;;;6.30;100.00;99517.25;4870271;29;20037;-81
2022/09/28 02:13:03;;;;;;;9.57;6.32;;;;;;;6.29;100.00;99512.88;4894977;29;20401;-82
2022/09/28 02:15:35;;;;;;;9.00;5.57;;;;;;;6.25;100.00;99514.63;4898669;29;20040;-82
2022/09/28 02:18:06;;;;;;;7.35;6.25;;;;;;;6.24;100.00;99507.66;4879010;29;20052;-82
2022/09/28 02:20:41;;;;;;;8.52;5.85;;;;;;;6.23;100.00;99516.38;4862505;29;20028;-81
2022/09/28 02:23:10;;;;;;;8.20;5.65;;;;;;;6.23;100.00;99518.13;4903000;29;20044;-82
2022/09/28 02:25:54;;;;;;;7.20;6.50;;;;;;;6.22;100.00;99516.41;4870886;29;20052;-81
2022/09/28 02:28:23;;;;;;;9.48;6.18;;;;;;;6.19;100.00;99512.00;4895763;29;20481;-81
2022/09/28 02:30:52;;;;;;;7.68;6.15;;;;;;;6.16;100.00;99508.53;4876351;29;20044;-83
2022/09/28 02:33:25;;;;;;;13.88;6.78;;;;;;;6.14;100.00;99507.66;4895203;29;20048;-82
2022/09/28 02:35:54;;;;;;;7.95;6.82;;;;;;;6.12;100.00;99515.50;4906445;29;20048;-80
2022/09/28 02:38:25;;;;;;;8.95;7.25;;;;;;;6.13;100.00;99519.00;4881079;29;20044;-81
2022/09/28 02:41:01;;;;;;;12.05;8.25;;;;;;;6.11;100.00;99503.31;4888190;29;20083;-82
2022/09/28 02:43:46;;;;;;;12.68;7.68;;;;;;;6.13;100.00;99506.78;4913583;29;20401;-82
2022/09/28 02:46:55;;;;;;;12.93;7.43;;;;;;;6.14;100.00;99505.03;4888854;29;20052;-82
2022/09/28 02:49:48;;;;;;;14.05;6.80;;;;;;;6.12;100.00;99512.88;4892976;29;20056;-81
2022/09/28 02:53:03;;;;;;;55.80;10.45;;;;;;;6.11;100.00;99513.78;4905441;29;20063;-82
2022/09/28 02:55:48;;;;;;;48.85;8.18;;;;;;;6.10;100.00;99508.53;4862092;29;20583;-81
2022/09/28 02:58:34;;;;;;;25.55;7.20;;;;;;;6.09;100.00;99512.00;4911422;29;20047;-81
2022/09/28 03:01:41;;;;;;;29.88;7.30;;;;;;;6.09;100.00;99517.22;4887664;29;20044;-81
2022/09/28 03:04:21;;;;;;;78.55;8.70;;;;;;;6.08;100.00;99518.97;4849684;29;20053;-81
2022/09/28 03:07:29;;;;;;;45.20;7.10;;;;;;;6.09;100.00;99514.63;4817482;29;20523;-81
2022/09/28 03:10:04;;;;;;;88.35;9.25;;;;;;;6.08;100.00;99513.75;4860836;29;20056;-81
2022/09/28 03:12:34;;;;;;;100.78;9.30;;;;;;;6.09;100.00;99515.50;4892602;29;20046;-82
2022/09/28 03:15:18;;;;;;;62.90;7.03;;;;;;;6.12;100.00;99523.34;4857573;29;20060;-82
2022/09/28 03:17:50;;;;;;;87.22;8.13;;;;;;;6.15;100.00;99517.25;4869819;29;20052;-82
2022/09/28 03:20:19;;;;;;;84.95;8.82;;;;;;;6.15;100.00;99515.50;4898925;29;20074;-81
2022/09/28 03:22:48;;;;;;;104.03;8.13;;;;;;;6.14;100.00;99513.75;4848078;29;20410;-82
2022/09/28 03:25:40;;;;;;;79.70;8.07;;;;;;;6.15;100.00;99518.13;4871583;29;20426;-81
2022/09/28 03:28:08;;;;;;;68.53;9.25;;;;;;;6.18;100.00;99525.97;4859635;29;20433;-81
2022/09/28 03:30:42;;;;;;;190.48;12.98;;;;;;;6.19;100.00;99526.84;4865179;29;20036;-81
2022/09/28 03:33:12;;;;;;;187.90;14.18;;;;;;;6.21;100.00;99512.88;4910820;29;20059;-81
2022/09/28 03:35:46;;;;;;;114.03;11.13;;;;;;;6.22;100.00;99522.47;4885377;29;20039;-81
2022/09/28 03:38:19;;;;;;;139.27;11.65;;;;;;;6.24;100.00;99520.75;4888295;29;20563;-81
2022/09/28 03:40:52;;;;;;;155.45;15.50;;;;;;;6.27;100.00;99519.84;4883991;29;20048;-81
2022/09/28 03:43:21;;;;;;;138.52;13.35;;;;;;;6.27;100.00;99516.38;4852869;29;20044;-80
2022/09/28 03:45:54;;;;;;;32.75;8.85;;;;;;;6.27;100.00;99522.47;4891125;29;20048;-80
2022/09/28 03:48:27;;;;;;;63.88;9.88;;;;;;;6.29;100.00;99514.63;4879294;29;20160;-81
2022/09/28 03:51:02;;;;;;;90.88;11.25;;;;;;;6.31;100.00;99520.72;4897294;29;20379;-83
2022/09/28 03:53:32;;;;;;;97.70;12.77;;;;;;;6.31;100.00;99518.09;4905863;29;20040;-82
2022/09/28 03:56:04;;;;;;;59.28;12.57;;;;;;;6.29;100.00;99515.50;4896561;29;20036;-82
2022/09/28 03:58:33;;;;;;;86.25;10.15;;;;;;;6.31;100.00;99518.09;4873143;29;20044;-81
2022/09/28 04:01:14;;;;;;;73.20;10.98;;;;;;;6.31;100.00;99515.50;4890109;29;20044;-82
2022/09/28 04:03:51;;;;;;;102.32;11.45;;;;;;;6.31;100.00;99515.50;4879568;29;20051;-82
2022/09/28 04:06:20;;;;;;;59.17;9.65;;;;;;;6.32;100.00;99522.47;4877478;29;20389;-82
2022/09/28 04:08:48;;;;;;;38.25;9.38;;;;;;;6.32;100.00;99525.09;4877651;29;20524;-82
2022/09/28 04:11:16;;;;;;;106.05;15.27;;;;;;;6.34;100.00;99512.88;4896329;29;20036;-81
2022/09/28 04:13:49;;;;;;;95.72;13.20;;;;;;;6.32;100.00;99507.66;4862415;29;20059;-81
2022/09/28 04:16:18;;;;;;;57.45;12.38;;;;;;;6.35;100.00;99512.00;4878308;29;20052;-81
2022/09/28 04:18:59;;;;;;;49.53;10.18;;;;;;;6.35;100.00;99518.13;4876296;29;20048;-81
2022/09/28 04:21:49;;;;;;;48.85;10.60;;;;;;;6.35;100.00;99512.00;4895796;29;20503;-81
2022/09/28 04:24:20;;;;;;;69.13;10.52;;;;;;;6.33;100.00;99516.38;4877689;29;20032;-81
2022/09/28 04:26:48;;;;;;;67.72;10.30;;;;;;;6.32;100.00;99507.66;4881265;29;20052;-81
2022/09/28 04:29:20;;;;;;;36.33;7.75;;;;;;;6.31;100.00;99516.34;4878217;29;20051;-81
2022/09/28 04:31:54;;;;;;;31.48;9.00;;;;;;;6.32;100.00;99517.25;4879088;29;20167;-81
2022/09/28 04:34:30;;;;;;;57.58;11.82;;;;;;;6.29;100.00;99515.50;4884267;29;20052;-82
2022/09/28 04:37:04;;;;;;;26.80;9.27;;;;;;;6.28;100.00;99523.38;4885336;29;20055;-82
2022/09/28 04:39:32;;;;;;;34.63;8.48;;;;;;;6.24;100.00;99518.13;4875799;29;20040;-82
2022/09/28 04:42:01;;;;;;;27.42;7.63;;;;;;;6.23;100.00;99521.59;4888136;29;20063;-82
2022/09/28 04:44:29;;;;;;;40.20;7.97;;;;;;;6.22;100.00;99517.25;4876012;29;20048;-82
2022/09/28 04:47:05;;;;;;;31.30;7.78;;;;;;;6.20;100.00;99518.09;4885201;29;20055;-82
2022/09/28 04:50:06;;;;;;;42.78;8.57;;;;;;;6.13;100.00;99522.47;4848668;29;20049;-82
2022/09/28 04:52:36;;;;;;;19.95;6.30;;;;;;;6.09;100.00;99527.69;4853996;29;20060;-81
2022/09/28 04:55:05;;;;;;;80.93;9.50;;;;;;;6.05;100.00;99513.78;4874158;29;20049;-81
2022/09/28 04:57:35;;;;;;;46.30;6.13;;;;;;;6.02;100.00;99534.69;4828135;29;20045;-84
2022/09/28 05:00:04;;;;;;;31.05;6.70;;;;;;;5.99;100.00;99534.66;4854575;29;20056;-83
2022/09/28 05:02:35;;;;;;;39.72;6.75;;;;;;;5.98;100.00;99527.72;4834777;29;20045;-83
2022/09/28 05:05:26;;;;;;;21.33;6.45;;;;;;;5.94;100.00;99531.16;4880844;29;20063;-83
2022/09/28 05:08:07;;;;;;;104.15;11.10;;;;;;;5.91;100.00;99539.00;4846600;29;20044;-81
2022/09/28 05:10:39;;;;;;;26.02;5.85;;;;;;;5.89;100.00;99538.13;4835561;29;20435;-82
2022/09/28 05:13:10;;;;;;;66.88;7.47;;;;;;;5.85;100.00;99539.88;4846437;29;20033;-82
2022/09/28 05:15:39;;;;;;;;;;;;;;;5.79;100.00;99540.72;4836381;29;20216;-81
2022/09/28 05:18:07;;;;;;;50.25;5.45;;;;;;;5.76;100.00;99532.88;4845300;29;20341;-81
2022/09/28 05:20:48;;;;;;;147.77;8.98;;;;;;;5.71;100.00;99545.06;4864210;29;20549;-81
2022/09/28 05:23:17;;;;;;;78.97;7.35;;;;;;;5.66;100.00;99536.34;4897560;29;20051;-81
2022/09/28 05:25:46;;;;;;;123.20;8.30;;;;;;;5.59;100.00;99545.03;4860195;29;20059;-81
2022/09/28 05:28:27;;;;;;;60.97;6.60;;;;;;;5.55;100.00;99535.44;4887960;29;20497;-83
2022/09/28 05:31:19;;;;;;;;;;;;;;;5.51;100.00;99537.19;4914892;29;20040;-82
2022/09/28 05:34:11;;;;;;;98.28;7.57;;;;;;;5.47;100.00;99535.44;4898421;29;19923;-82
2022/09/28 05:36:41;;;;;;;52.83;6.38;;;;;;;5.44;100.00;99532.78;4865964;29;20057;-81
2022/09/28 05:39:13;;;;;;;48.67;6.53;;;;;;;5.42;100.00;99522.34;4877740;29;20057;-82
2022/09/28 05:41:41;;;;;;;130.48;7.38;;;;;;;5.42;100.00;99521.47;4827565;29;20061;-82
2022/09/28 05:44:10;;;;;;;126.28;10.10;;;;;;;5.39;100.00;99527.56;4878174;29;20046;-81
2022/09/28 05:46:38;;;;;;;111.18;9.90;;;;;;;5.36;100.00;99530.16;4836208;29;20053;-81
2022/09/28 05:49:09;;;;;;;;;;;;;;;5.33;100.00;99524.94;4864163;29;20044;-81
2022/09/28 05:51:38;;;;;;;102.47;9.48;;;;;;;5.30;100.00;99529.28;4852762;29;20380;-81
2022/09/28 05:54:07;;;;;;;154.77;8.30;;;;;;;5.26;100.00;99534.50;4867037;29;20041;-82
2022/09/28 05:56:40;;;;;;;142.65;9.73;;;;;;;5.23;100.00;99533.59;4855671;29;20049;-80
2022/09/28 05:59:08;;;;;;;195.25;10.93;;;;;;;5.23;100.00;99537.06;4830192;29;20112;-77
2022/09/28 06:01:38;;;;;;;92.82;8.43;;;;;;;5.25;100.00;99537.09;4820610;29;20037;-81
2022/09/28 06:04:09;;;;;;;184.57;10.57;;;;;;;5.29;100.00;99536.22;4835454;29;20041;-81
2022/09/28 06:06:42;;;;;;;115.57;9.43;;;;;;;5.31;100.00;99528.41;4825250;29;20078;-81
2022/09/28 06:09:10;;;;;;;190.93;10.20;;;;;;;5.33;100.00;99532.78;4880751;29;20056;-81
2022/09/28 06:11:58;;;;;;;77.43;8.75;;;;;;;5.33;100.00;99532.78;4883462;29;20051;-80
2022/09/28 06:14:37;;;;;;;237.55;15.38;;;;;;;5.36;100.00;99540.59;4881991;29;20044;-82
2022/09/28 06:17:06;;;;;;;84.82;10.05;;;;;;;5.38;100.00;99536.25;4876444;29;20049;-81
2022/09/28 06:19:35;;;;;;;180.90;13.25;;;;;;;5.39;100.00;99548.47;4843882;29;20406;-82
2022/09/28 06:22:26;;;;;;;226.00;12.38;;;;;;;5.36;100.00;99548.44;4868172;29;20043;-82
2022/09/28 06:25:03;;;;;;;173.25;10.98;;;;;;;5.32;100.00;99544.09;4873867;29;20071;-81
2022/09/28 06:27:33;;;;;;;205.47;10.97;;;;;;;5.27;100.00;99554.53;4865061;29;20047;-81
2022/09/28 06:30:01;;;;;;;169.27;10.32;;;;;;;5.22;100.00;99553.63;4871346;29;20049;-81
2022/09/28 06:32:30;;;;;;;117.30;8.98;;;;;;;5.21;100.00;99553.63;4890380;29;20048;-82
2022/09/28 06:34:58;;;;;;;104.03;10.13;;;;;;;5.24;100.00;99554.50;4869073;29;20047;-80
2022/09/28 06:37:27;;;;;;;80.22;8.75;;;;;;;5.31;100.00;99558.00;4883691;29;20040;-80
2022/09/28 06:39:58;;;;;;;99.20;8.97;;;;;;;5.34;100.00;99552.78;4880848;29;20327;-80
2022/09/28 06:42:26;;;;;;;118.35;9.43;;;;;;;5.37;100.00;99551.94;4877341;29;20043;-81
2022/09/28 06:45:24;;;;;;;82.30;8.23;;;;;;;5.42;100.00;99568.50;4905805;29;20052;-80
2022/09/28 06:48:21;;;;;;;54.35;7.32;;;;;;;5.47;100.00;99561.56;4899215;29;20064;-80
2022/09/28 06:50:49;;;;;;;68.13;7.95;;;;;;;5.54;100.00;99565.03;4872424;29;20079;-80
2022/09/28 06:53:28;;;;;;;62.92;7.80;;;;;;;5.58;100.00;99565.06;4872690;29;20525;-80
2022/09/28 06:56:01;;;;;;;47.85;6.47;;;;;;;5.65;100.00;99563.34;4881696;29;20044;-77
2022/09/28 06:58:31;;;;;;;57.33;7.87;;;;;;;5.74;100.00;99562.50;4874505;29;20418;-81
2022/09/28 07:01:02;;;;;;;64.43;7.20;;;;;;;5.81;100.00;99565.13;4866397;29;20052;-80
2022/09/28 07:03:42;;;;;;;42.53;6.53;;;;;;;5.85;100.00;99568.63;4877853;29;20604;-80
2022/09/28 07:06:46;;;;;;;52.40;6.22;;;;;;;5.91;100.00;99567.75;4833339;29;20061;-79
2022/09/28 07:09:33;;;;;;;;;;;;;;;5.95;100.00;99575.63;4912738;29;20047;-80
2022/09/28 07:12:29;;;;;;;105.55;8.25;;;;;;;6.03;100.00;99576.53;4898339;29;20270;-82
2022/09/28 07:15:03;;;;;;;114.57;8.73;;;;;;;6.09;100.00;99577.38;4891227;29;20398;-82
2022/09/28 07:17:34;;;;;;;53.72;5.90;;;;;;;6.16;100.00;99574.81;4894058;29;20051;-82
2022/09/28 07:20:18;;;;;;;100.03;8.27;;;;;;;6.24;100.00;99582.66;4886511;29;20056;-81
2022/09/28 07:22:54;;;;;;;98.45;7.80;;;;;;;6.31;100.00;99586.13;4851826;29;20071;-82
2022/09/28 07:25:25;;;;;;;104.15;8.25;;;;;;;6.34;100.00;99584.41;4857056;29;20067;-82
2022/09/28 07:28:08;;;;;;;79.78;7.03;;;;;;;6.40;100.00;99584.38;4871061;29;20052;-80
2022/09/28 07:30:56;;;;;;;122.55;11.85;;;;;;;6.51;100.00;99578.28;4879314;29;20044;-81
2022/09/28 07:33:49;;;;;;;108.65;8.30;;;;;;;6.61;100.00;99585.25;4888884;29;20041;-80
2022/09/28 07:36:38;;;;;;;95.72;7.95;;;;;;;6.69;100.00;99585.25;4860559;29;20048;-82
2022/09/28 07:39:06;;;;;;;69.80;7.65;;;;;;;6.73;100.00;99587.88;4893487;29;20045;-80
2022/09/28 07:41:37;;;;;;;129.77;10.80;;;;;;;6.83;100.00;99584.34;4906886;29;20403;-80
2022/09/28 07:44:06;;;;;;;124.93;8.40;;;;;;;6.88;100.00;99586.97;4869342;29;20048;-80
2022/09/28 07:46:39;;;;;;;92.07;8.43;;;;;;;6.94;100.00;99586.09;4869622;29;20047;-81
2022/09/28 07:49:18;;;;;;;116.63;10.45;;;;;;;7.02;100.00;99595.66;4889234;29;20494;-81
2022/09/28 07:52:00;;;;;;;72.50;6.57;;;;;;;7.10;100.00;99593.00;4896598;29;20052;-81
2022/09/28 07:54:30;;;;;;;51.05;6.47;;;;;;;7.19;100.00;99586.88;4867539;29;21580;-81
2022/09/28 07:56:58;;;;;;;130.60;10.07;;;;;;;7.24;100.00;99600.84;4895494;29;20040;-82
2022/09/28 07:59:52;;;;;;;102.57;8.75;;;;;;;7.33;100.00;99595.56;4893637;29;20697;-82
2022/09/28 08:02:39;;;;;;;64.57;6.90;;;;;;;7.37;100.00;99599.03;4883875;29;20279;-82
2022/09/28 08:05:08;;;;;;;116.30;8.35;;;;;;;7.47;100.00;99602.53;4894159;29;20055;-81
2022/09/28 08:07:37;;;;;;;63.75;6.82;;;;;;;7.58;100.00;99608.56;4868646;29;20040;-83
2022/09/28 08:10:10;;;;;;;33.85;7.57;;;;;;;7.71;100.00;99610.28;4885398;29;21285;-80
2022/09/28 08:13:02;;;;;;;48.28;7.75;;;;;;;7.85;100.00;99610.19;4884157;29;20032;-80
2022/09/28 08:16:02;;;;;;;41.28;6.65;;;;;;;7.97;100.00;99607.47;4871353;29;20242;-80
2022/09/28 08:18:47;;;;;;;42.83;7.40;;;;;;;8.10;100.00;99616.16;4891890;29;20147;-80
2022/09/28 08:24:07;;;;;;;96.15;7.18;;;;;;;8.31;100.00;99619.50;4853491;29;20059;-80
2022/09/28 08:26:36;;;;;;;15.35;6.03;;;;;;;8.29;100.00;99622.16;4869832;29;20397;-80
2022/09/28 08:29:05;;;;;;;48.60;7.28;;;;;;;8.32;100.00;99627.38;4883408;29;20044;-80
2022/09/28 08:32:09;;;;;;;32.05;6.32;;;;;;;8.40;100.00;99629.94;4862119;29;20056;-80
2022/09/28 08:34:58;;;;;;;23.23;5.70;;;;;;;8.48;100.00;99628.16;4910223;29;20048;-80
2022/09/28 08:37:41;;;;;;;107.93;8.43;;;;;;;8.55;100.00;99639.50;4877010;29;20361;-80
2022/09/28 08:40:51;;;;;;;40.60;6.30;;;;;;;8.67;100.00;99633.28;4872654;29;20064;-82
2022/09/28 08:43:38;;;;;;;58.55;6.22;;;;;;;8.81;100.00;99635.78;4880706;29;20040;-80
2022/09/28 08:46:38;;;;;;;42.50;6.50;;;;;;;8.88;100.00;99640.94;4884888;29;20056;-82
2022/09/28 08:49:38;;;;;;;32.72;6.35;;;;;;;9.03;100.00;99636.44;4895287;29;20060;-80
2022/09/28 08:52:24;;;;;;;37.78;5.80;;;;;;;9.16;100.00;99636.28;4884220;29;20051;-81
2022/09/28 08:55:22;;;;;;;14.32;5.68;;;;;;;9.30;100.00;99637.91;4869014;29;20389;-80
2022/09/28 08:57:59;;;;;;;13.10;5.68;;;;;;;9.45;100.00;99644.75;4889824;29;20528;-80
2022/09/28 09:00:47;;;;;;;6.13;5.60;;;;;;;9.61;100.00;99646.31;4889066;29;20047;-80
2022/09/28 09:03:22;;;;;;;10.00;4.95;;;;;;;9.76;100.00;99645.28;4873736;29;20063;-80
2022/09/28 09:06:26;;;;;;;7.00;5.20;;;;;;;9.79;100.00;99652.25;4895656;29;20283;-80
2022/09/28 09:09:27;;;;;;;5.82;5.18;;;;;;;9.76;100.00;99650.53;4883589;29;20372;-80
2022/09/28 09:12:24;;;;;;;6.80;5.97;;;;;;;9.88;100.00;99652.13;4910473;29;20064;-81
2022/09/28 09:15:23;;;;;;;14.10;6.00;;;;;;;9.95;100.00;99649.38;4902825;29;20040;-82
2022/09/28 09:18:06;;;;;;;11.15;5.43;;;;;;;9.94;100.00;99649.41;4891187;29;20510;-82
2022/09/28 09:21:15;;;;;;;5.70;5.05;;;;;;;9.88;100.00;99650.34;4883550;29;20349;-80
2022/09/28 09:23:52;;;;;;;7.60;5.55;;;;;;;9.90;100.00;99659.09;4901275;29;20040;-81
2022/09/28 09:26:40;;;;;;;6.53;5.80;;;;;;;10.00;100.00;99651.97;4863385;29;20043;-80
2022/09/28 09:29:27;;;;;;;12.60;5.82;;;;;;;10.04;100.00;99656.31;4882220;29;20052;-81
2022/09/28 09:32:34;;;;;;;6.80;5.68;;;;;;;10.12;100.00;99662.31;4880836;29;20044;-82
2022/09/28 09:35:13;;;;;;;7.38;5.82;;;;;;;10.20;100.00;99669.25;4865947;29;20365;-82
2022/09/28 09:38:20;;;;;;;6.38;5.82;;;;;;;10.21;100.00;99668.34;4895401;29;20083;-80
2022/09/28 09:41:20;;;;;;;6.32;5.82;;;;;;;10.27;100.00;99671.78;4866483;29;20272;-80
2022/09/28 09:44:17;;;;;;;6.07;5.47;;;;;;;10.39;100.00;99672.50;4899763;29;20075;-80
2022/09/28 09:47:10;;;;;;;8.95;6.00;;;;;;;10.46;100.00;99669.75;4900061;29;20040;-80
2022/09/28 09:50:29;;;;;;;6.07;5.47;;;;;;;10.57;100.00;99671.34;4907300;29;20398;-80
2022/09/28 09:53:12;;;;;;;5.90;5.10;;;;;;;10.66;100.00;99679.13;4849832;29;20048;-80
2022/09/28 09:55:44;;;;;;;5.57;5.07;;;;;;;10.71;100.00;99679.91;4884460;29;20044;-80
2022/09/28 09:58:38;;;;;;;5.00;4.50;;;;;;;10.69;100.00;99684.34;4894031;29;20056;-79
2022/09/28 10:01:25;;;;;;;4.82;4.32;;;;;;;10.71;100.00;99679.91;4870413;29;20075;-79
2022/09/28 10:04:28;;;;;;;6.43;5.25;;;;;;;10.74;100.00;99685.16;4891268;29;20052;-79
2022/09/28 10:07:05;;;;;;;5.28;4.78;;;;;;;10.78;100.00;99686.84;4877346;29;20036;-79
2022/09/28 10:09:43;;;;;;;4.63;4.30;;;;;;;10.80;100.00;99690.31;4888222;29;20043;-79
2022/09/28 10:12:38;;;;;;;4.68;4.28;;;;;;;10.90;100.00;99689.25;4872972;29;20059;-79
2022/09/28 10:15:07;;;;;;;6.13;5.53;;;;;;;11.07;100.00;99690.75;4885581;29;20282;-79
2022/09/28 10:17:47;;;;;;;4.40;4.00;;;;;;;11.19;100.00;99687.00;4887380;29;20040;-79
2022/09/28 10:20:38;;;;;;;4.72;4.32;;;;;;;11.28;100.00;99685.06;4911221;29;20051;-79
2022/09/28 10:23:28;;;;;;;5.45;4.97;;;;;;;11.42;100.00;99689.25;4873989;29;20525;-79
2022/09/28 10:26:02;;;;;;;4.25;3.95;;;;;;;11.45;100.00;99683.91;4891310;29;20051;-79
2022/09/28 10:28:58;;;;;;;4.40;4.00;;;;;;;11.50;100.00;99689.97;4880721;29;20051;-77
2022/09/28 10:31:39;;;;;;;5.00;4.57;;;;;;;11.60;100.00;99691.50;4881009;29;20056;-80
2022/09/28 10:34:16;;;;;;;4.75;4.05;;;;;;;11.62;100.00;99686.22;4890209;29;20260;-79
2022/09/28 10:36:54;;;;;;;4.53;4.13;;;;;;;11.62;100.00;99688.84;4885837;29;20036;-80
2022/09/28 10:39:45;;;;;;;3.95;3.65;;;;;;;11.62;100.00;99687.06;4893012;29;20164;-79
2022/09/28 10:42:32;;;;;;;4.88;4.47;;;;;;;11.74;100.00;99690.38;4871950;29;20056;-79
2022/09/28 10:45:11;;;;;;;4.22;3.90;;;;;;;11.79;100.00;99699.94;4882698;29;20055;-79
2022/09/28 10:47:43;;;;;;;3.85;3.55;;;;;;;11.82;100.00;99696.38;4889229;29;20083;-79
2022/09/28 10:50:24;;;;;;;4.00;3.70;;;;;;;11.84;100.00;99695.44;4891467;29;20040;-79
2022/09/28 10:53:18;;;;;;;4.38;3.97;;;;;;;11.93;100.00;99691.78;4880556;29;20043;-80
2022/09/28 10:56:21;;;;;;;4.38;3.90;;;;;;;12.04;100.00;99695.06;4899010;29;20075;-79
2022/09/28 10:58:57;;;;;;;4.25;3.85;;;;;;;12.08;100.00;99696.75;4852594;29;20401;-79
2022/09/28 11:01:40;;;;;;;4.88;3.47;;;;;;;12.05;100.00;99691.50;4878142;29;20758;-78
2022/09/28 11:04:21;;;;;;;4.05;3.63;;;;;;;12.09;100.00;99687.91;4890412;29;20524;-81
2022/09/28 11:06:50;;;;;;;4.25;3.65;;;;;;;12.22;100.00;99693.78;4867548;29;20064;-80
2022/09/28 11:09:29;;;;;;;5.05;2.88;;;;;;;12.34;100.00;99687.34;4882767;29;20051;-81
2022/09/28 11:12:05;;;;;;;3.58;3.08;;;;;;;12.45;100.00;99695.06;4893679;29;20043;-79
2022/09/28 11:14:39;;;;;;;4.50;3.53;;;;;;;12.50;100.00;99693.19;4826437;29;21461;-79
2022/09/28 11:17:29;;;;;;;3.70;3.40;;;;;;;12.59;100.00;99697.38;4874570;29;20398;-80
2022/09/28 11:20:26;;;;;;;3.15;2.85;;;;;;;12.64;100.00;99693.72;4891013;29;20060;-80
2022/09/28 11:23:15;;;;;;;7.00;3.00;;;;;;;12.71;100.00;99705.03;4891560;29;20043;-80
2022/09/28 11:25:56;;;;;;;3.20;3.00;;;;;;;12.80;100.00;99696.00;4892862;29;20037;-82
2022/09/28 11:28:30;;;;;;;2.78;2.60;;;;;;;12.85;100.00;99697.63;4884668;29;20036;-84
2022/09/28 11:31:01;;;;;;;4.07;2.20;;;;;;;12.90;100.00;99688.72;4834313;29;20067;-81
2022/09/28 11:33:44;;;;;;;4.05;2.55;;;;;;;13.00;100.00;99698.16;4873706;29;20040;-79
2022/09/28 11:36:32;;;;;;;2.63;2.42;;;;;;;13.09;100.00;99692.63;4887312;29;20252;-79
2022/09/28 11:39:33;;;;;;;2.47;2.28;;;;;;;13.11;100.00;99696.09;4862769;29;20040;-78
2022/09/28 11:42:16;;;;;;;2.20;2.10;;;;;;;13.14;100.00;99700.47;4880516;29;20391;-80
2022/09/28 11:44:47;;;;;;;1.83;1.73;;;;;;;13.15;100.00;99696.88;4897733;29;20044;-80
2022/09/28 11:47:36;;;;;;;2.50;2.40;;;;;;;13.18;100.00;99692.41;4862350;29;20044;-79
2022/09/28 11:50:35;;;;;;;2.30;2.20;;;;;;;13.30;100.00;99700.91;4893622;29;20502;-80
2022/09/28 11:53:37;;;;;;;2.13;2.03;;;;;;;13.36;100.00;99699.00;4882179;29;20060;-79
2022/09/28 11:56:34;;;;;;;2.38;1.90;;;;;;;13.37;100.00;99699.88;4879278;29;20059;-81
2022/09/28 11:59:14;;;;;;;2.08;1.90;;;;;;;13.26;100.00;99700.13;4901598;29;20410;-79
2022/09/28 12:02:02;;;;;;;2.30;2.10;;;;;;;13.20;100.00;99693.22;4866098;29;20374;-79
2022/09/28 12:04:51;;;;;;;1.85;1.55;;;;;;;13.24;100.00;99704.59;4877588;29;20141;-79
2022/09/28 12:07:36;;;;;;;1.90;1.70;;;;;;;13.29;100.00;99699.16;4868165;29;20167;-79
2022/09/28 12:10:22;;;;;;;3.00;1.45;;;;;;;13.39;100.00;99704.22;4866376;29;20047;-78
2022/09/28 12:12:59;;;;;;;3.08;1.75;;;;;;;13.50;100.00;99709.22;4895446;29;20047;-79
2022/09/28 12:15:54;;;;;;;2.35;1.50;;;;;;;13.51;100.00;99704.81;4894023;29;20075;-79
2022/09/28 12:19:01;;;;;;;1.98;1.23;;;;;;;13.43;100.00;99702.38;4880294;29;20048;-79
2022/09/28 12:21:50;;;;;;;1.50;1.40;;;;;;;13.35;100.00;99710.50;4876015;29;20171;-79
2022/09/28 12:24:54;;;;;;;1.50;1.38;;;;;;;13.27;100.00;99705.38;4860890;29;20404;-80
2022/09/28 12:27:31;;;;;;;1.58;1.10;;;;;;;13.18;100.00;99707.41;4816054;29;20058;-80
2022/09/28 12:30:12;;;;;;;1.38;1.27;;;;;;;13.01;100.00;99715.75;4886183;29;20075;-79